Aviation Digital Data Service (ADDS)

Output produced by METARs form (1408 UTC 30 July 2015)
found at http://aviationweather.gov/adds/metars/
 
KRUT 301120Z 3012/3112 15005KT P6SM SCT250 
     FM301800 19007G14KT P6SM VCTS SCT050CB BKN120 
     TEMPO 3018/3020 VRB15G25KT 2SM +TSRA BR BKN025 OVC050CB 
     FM302000 22005KT P6SM SCT070 SCT250 
     FM310000 13005KT P6SM FEW070 AMD NOT SKED